Time;durP1;ratioP1;P1;durP2;ratioP2;P2;SDS_P1;SDS_P2;PMS_P1;PMS_P2;Temp;Humidity;BMP_temperature;BMP_pressure;BME280_temperature;BME280_humidity;BME280_pressure;Samples;Min_cycle;Max_cycle;Signal;HPM_P1;HPM_P2
2022/06/09 00:01:13;;;;;;;23.15;6.28;;;14.60;99.90;;;;;;5015655;28;20480;-67
2022/06/09 00:04:02;;;;;;;21.55;5.97;;;14.70;99.90;;;;;;5026403;28;20051;-67
2022/06/09 00:06:43;;;;;;;26.88;6.63;;;14.50;99.90;;;;;;5053335;28;20090;-67
2022/06/09 00:09:09;;;;;;;23.95;7.85;;;14.60;99.90;;;;;;5035771;28;20498;-67
2022/06/09 00:11:38;;;;;;;23.15;6.05;;;14.50;99.90;;;;;;5035786;28;20055;-68
2022/06/09 00:14:06;;;;;;;23.40;6.70;;;14.50;99.90;;;;;;5027984;28;20045;-67
2022/06/09 00:16:32;;;;;;;20.58;6.95;;;14.40;99.90;;;;;;4999351;28;20045;-67
2022/06/09 00:18:58;;;;;;;24.58;7.00;;;14.30;99.90;;;;;;4999369;28;20041;-67
2022/06/09 00:21:24;;;;;;;12.70;5.47;;;14.40;99.90;;;;;;5033822;28;20064;-67
2022/06/09 00:23:50;;;;;;;22.67;6.97;;;14.30;99.90;;;;;;5033754;28;20479;-67
2022/06/09 00:26:16;;;;;;;22.08;6.57;;;14.30;99.90;;;;;;5043146;28;20052;-67
2022/06/09 00:28:42;;;;;;;21.20;6.97;;;14.40;99.90;;;;;;5015797;28;20091;-67
2022/06/09 00:31:07;;;;;;;18.35;7.50;;;14.30;99.90;;;;;;5020662;28;20422;-67
2022/06/09 00:33:33;;;;;;;23.08;7.15;;;14.20;99.90;;;;;;5033494;28;20510;-67
2022/06/09 00:35:58;;;;;;;17.65;6.95;;;14.20;99.90;;;;;;5053135;28;20056;-67
2022/06/09 00:38:24;;;;;;;20.02;6.72;;;14.20;99.90;;;;;;5041363;28;20518;-67
2022/06/09 00:40:50;;;;;;;16.33;6.75;;;14.10;99.90;;;;;;5016034;28;20132;-68
2022/06/09 00:43:15;;;;;;;22.58;8.18;;;14.20;99.90;;;;;;5033461;28;20176;-68
2022/06/09 00:45:51;;;;;;;18.38;6.68;;;14.10;99.90;;;;;;5031720;28;20497;-67
2022/06/09 00:48:30;;;;;;;17.95;6.28;;;14.10;99.90;;;;;;5025684;28;20150;-67
2022/06/09 00:51:18;;;;;;;15.38;6.28;;;14.00;99.90;;;;;;5015646;28;20045;-67
2022/06/09 00:53:44;;;;;;;14.73;7.10;;;;;;;;;;5015120;28;20091;-67
2022/06/09 00:56:12;;;;;;;15.77;6.80;;;14.20;99.90;;;;;;5018855;28;20513;-67
2022/06/09 00:58:41;;;;;;;19.85;6.10;;;14.10;99.90;;;;;;5034726;28;20052;-67
2022/06/09 01:01:11;;;;;;;17.25;6.55;;;13.90;99.90;;;;;;5052555;28;20424;-68
2022/06/09 01:03:42;;;;;;;15.43;6.32;;;13.90;99.90;;;;;;5052321;28;20037;-67
2022/06/09 01:06:13;;;;;;;21.77;6.57;;;13.90;99.90;;;;;;5030267;28;20048;-67
2022/06/09 01:08:48;;;;;;;22.80;6.93;;;13.70;99.90;;;;;;5050195;28;20056;-67
2022/06/09 01:11:13;;;;;;;19.85;6.93;;;13.80;99.90;;;;;;5049188;28;20155;-68
2022/06/09 01:13:40;;;;;;;16.48;7.13;;;13.60;99.90;;;;;;5034816;28;20179;-67
2022/06/09 01:16:20;;;;;;;25.08;6.32;;;13.90;99.90;;;;;;5034850;28;20422;-67
2022/06/09 01:19:31;;;;;;;18.67;5.90;;;13.70;99.90;;;;;;5050429;28;20038;-68
2022/06/09 01:22:19;;;;;;;25.60;6.00;;;13.70;99.90;;;;;;5005795;28;20507;-68
2022/06/09 01:25:03;;;;;;;25.70;7.90;;;13.60;99.90;;;;;;5040801;28;20066;-68
2022/06/09 01:28:06;;;;;;;17.27;6.18;;;13.60;99.90;;;;;;5027477;28;20044;-67
2022/06/09 01:30:45;;;;;;;22.88;7.90;;;13.80;99.90;;;;;;5007571;28;20048;-67
2022/06/09 01:33:18;;;;;;;26.08;7.22;;;13.50;99.90;;;;;;5049971;28;20048;-68
2022/06/09 01:35:52;;;;;;;18.30;6.45;;;13.60;99.90;;;;;;5040738;28;20048;-67
2022/06/09 01:38:18;;;;;;;20.67;7.28;;;;;;;;;;5030329;28;20545;-68
2022/06/09 01:40:43;;;;;;;18.30;6.57;;;13.60;99.90;;;;;;5007014;28;20045;-68
2022/06/09 01:43:10;;;;;;;27.55;7.22;;;13.60;99.90;;;;;;5032555;28;20095;-68
2022/06/09 01:45:50;;;;;;;18.83;6.72;;;13.60;99.90;;;;;;5025694;28;20040;-67
2022/06/09 01:48:18;;;;;;;24.40;8.07;;;13.50;99.90;;;;;;5032265;28;20037;-67
2022/06/09 01:50:58;;;;;;;15.27;6.10;;;13.50;99.90;;;;;;5038387;28;20050;-68
2022/06/09 01:53:34;;;;;;;27.55;8.65;;;13.50;99.90;;;;;;5038583;28;20102;-67
2022/06/09 01:56:14;;;;;;;20.73;7.20;;;13.60;99.90;;;;;;5023161;28;20503;-67
2022/06/09 01:58:59;;;;;;;23.92;7.43;;;13.50;99.90;;;;;;5030929;28;20369;-68
2022/06/09 02:01:33;;;;;;;26.00;7.50;;;13.60;99.90;;;;;;5020701;28;20037;-67
2022/06/09 02:04:02;;;;;;;21.88;7.15;;;13.40;99.90;;;;;;5013299;28;20081;-68
2022/06/09 02:06:29;;;;;;;20.23;5.82;;;13.40;99.90;;;;;;5038369;28;20501;-67
2022/06/09 02:08:55;;;;;;;22.73;6.07;;;13.40;99.90;;;;;;5020601;28;20037;-67
2022/06/09 02:11:21;;;;;;;17.77;6.38;;;13.40;99.90;;;;;;5038430;28;20469;-67
2022/06/09 02:13:50;;;;;;;23.40;6.47;;;13.30;99.90;;;;;;5004261;28;20049;-67
2022/06/09 02:16:20;;;;;;;20.85;6.55;;;13.40;99.90;;;;;;5053619;28;20087;-67
2022/06/09 02:18:50;;;;;;;19.83;6.13;;;13.30;99.90;;;;;;5011084;28;20041;-68
2022/06/09 02:21:20;;;;;;;21.52;5.60;;;13.40;99.90;;;;;;5024344;28;20507;-68
2022/06/09 02:23:47;;;;;;;18.90;6.43;;;13.10;99.90;;;;;;5038883;28;20041;-67
2022/06/09 02:26:14;;;;;;;21.17;6.32;;;13.20;99.90;;;;;;5015883;28;20044;-67
2022/06/09 02:28:40;;;;;;;19.77;6.32;;;13.20;99.90;;;;;;5036393;28;20045;-68
2022/06/09 02:31:06;;;;;;;18.83;5.82;;;;;;;;;;5017392;28;20046;-67
2022/06/09 02:33:31;;;;;;;19.60;6.30;;;13.20;99.90;;;;;;5035045;28;20042;-67
2022/06/09 02:35:57;;;;;;;28.58;8.02;;;13.20;99.90;;;;;;5000960;28;20176;-67
2022/06/09 02:38:23;;;;;;;19.10;7.00;;;13.30;99.90;;;;;;5017560;28;20041;-67
2022/06/09 02:40:50;;;;;;;18.48;7.00;;;13.10;99.90;;;;;;5035362;28;20113;-68
2022/06/09 02:43:16;;;;;;;20.05;6.22;;;13.20;99.90;;;;;;5029329;28;20033;-67
2022/06/09 02:45:43;;;;;;;19.15;6.40;;;13.20;99.90;;;;;;5037057;28;20112;-67
2022/06/09 02:48:09;;;;;;;21.13;6.28;;;13.30;99.90;;;;;;5044424;28;20495;-68
2022/06/09 02:50:36;;;;;;;15.75;5.40;;;13.20;99.90;;;;;;5034791;28;20041;-67
2022/06/09 02:53:02;;;;;;;15.63;6.50;;;13.00;99.90;;;;;;5016965;28;20060;-67
2022/06/09 02:55:28;;;;;;;11.52;5.45;;;13.30;99.90;;;;;;5016657;28;20044;-68
2022/06/09 02:57:55;;;;;;;20.90;6.80;;;13.20;99.90;;;;;;5041143;28;20520;-68
2022/06/09 03:00:21;;;;;;;13.10;5.05;;;13.10;99.90;;;;;;5037097;28;20080;-67
2022/06/09 03:02:56;;;;;;;20.83;5.57;;;13.10;99.90;;;;;;5035663;28;20033;-67
2022/06/09 03:05:22;;;;;;;10.15;4.85;;;13.00;99.90;;;;;;5000208;28;20049;-67
2022/06/09 03:07:48;;;;;;;10.90;4.90;;;12.90;99.90;;;;;;5052967;28;20075;-67
2022/06/09 03:10:15;;;;;;;12.18;5.15;;;13.00;99.90;;;;;;5043583;28;20453;-67
2022/06/09 03:12:40;;;;;;;15.80;4.85;;;13.10;99.90;;;;;;5014084;28;20495;-67
2022/06/09 03:15:08;;;;;;;18.17;5.55;;;13.10;99.90;;;;;;5021211;28;20090;-67
2022/06/09 03:17:37;;;;;;;15.23;4.82;;;13.00;99.90;;;;;;5054399;28;20395;-67
2022/06/09 03:20:09;;;;;;;13.55;4.90;;;13.00;99.90;;;;;;5050888;28;20534;-68
2022/06/09 03:22:35;;;;;;;11.35;3.88;;;13.00;99.90;;;;;;5016225;28;20087;-67
2022/06/09 03:25:01;;;;;;;10.30;5.70;;;13.00;99.90;;;;;;5016696;28;20045;-67
2022/06/09 03:27:27;;;;;;;11.95;4.93;;;12.90;99.90;;;;;;5016639;28;20092;-67
2022/06/09 03:29:53;;;;;;;9.23;3.78;;;;;;;;;;5034233;28;20037;-67
2022/06/09 03:32:18;;;;;;;13.50;4.68;;;12.90;99.90;;;;;;5034250;28;20372;-68
2022/06/09 03:34:44;;;;;;;11.75;4.85;;;13.10;99.90;;;;;;5028420;28;20041;-68
2022/06/09 03:37:09;;;;;;;11.55;4.75;;;13.00;99.90;;;;;;5032136;28;20048;-68
2022/06/09 03:39:36;;;;;;;8.75;4.10;;;13.00;99.90;;;;;;5033955;28;20491;-67
2022/06/09 03:42:03;;;;;;;13.80;5.28;;;12.80;99.90;;;;;;5034007;28;20068;-67
2022/06/09 03:44:28;;;;;;;12.02;4.35;;;13.00;99.90;;;;;;5016068;28;20037;-67
2022/06/09 03:46:54;;;;;;;11.15;4.45;;;12.80;99.90;;;;;;5029656;28;20093;-67
2022/06/09 03:49:21;;;;;;;10.77;3.42;;;;;;;;;;5053725;28;20498;-67
2022/06/09 03:51:46;;;;;;;9.95;4.25;;;13.00;99.90;;;;;;5019524;28;20041;-68
2022/06/09 03:54:14;;;;;;;8.52;3.75;;;12.90;99.90;;;;;;5017181;28;20038;-67
2022/06/09 03:56:40;;;;;;;13.65;3.78;;;;;;;;;;5015905;28;20173;-67
2022/06/09 03:59:06;;;;;;;12.45;3.95;;;13.10;99.90;;;;;;5015825;28;20041;-68
2022/06/09 04:01:31;;;;;;;10.13;4.28;;;12.90;99.90;;;;;;5042506;28;20372;-67
2022/06/09 04:03:58;;;;;;;7.50;4.40;;;;;;;;;;5035124;28;20112;-66
2022/06/09 04:06:25;;;;;;;11.15;3.80;;;13.10;99.90;;;;;;5033414;28;20037;-67
2022/06/09 04:08:51;;;;;;;11.73;4.20;;;13.10;99.90;;;;;;5015246;28;20068;-67
2022/06/09 04:11:18;;;;;;;13.30;4.80;;;13.10;99.90;;;;;;5032443;28;20036;-66
2022/06/09 04:13:44;;;;;;;10.50;4.47;;;;;;;;;;5034951;28;20128;-66
2022/06/09 04:16:21;;;;;;;16.80;6.15;;;13.10;99.90;;;;;;5052691;28;20183;-66
2022/06/09 04:18:47;;;;;;;14.80;5.57;;;13.20;99.90;;;;;;5046107;28;20033;-66
2022/06/09 04:21:13;;;;;;;8.40;4.43;;;13.10;99.90;;;;;;5046040;28;20060;-67
2022/06/09 04:23:38;;;;;;;11.75;4.93;;;13.20;99.90;;;;;;5048173;28;20044;-67
2022/06/09 04:26:04;;;;;;;15.60;5.05;;;13.40;99.90;;;;;;5026138;28;20049;-67
2022/06/09 04:28:30;;;;;;;10.98;5.40;;;13.30;99.90;;;;;;5041819;28;20498;-67
2022/06/09 04:30:56;;;;;;;15.02;5.72;;;;;;;;;;5049617;28;20083;-67
2022/06/09 04:33:22;;;;;;;14.60;5.13;;;;;;;;;;5043542;28;20694;-67
2022/06/09 04:35:48;;;;;;;11.85;5.38;;;;;;;;;;5024973;28;20055;-67
2022/06/09 04:38:14;;;;;;;13.90;5.30;;;;;;;;;;5025650;28;20131;-67
2022/06/09 04:40:41;;;;;;;14.05;6.80;;;13.60;99.90;;;;;;5008964;28;20053;-67
2022/06/09 04:43:11;;;;;;;11.50;6.88;;;13.50;99.90;;;;;;5043758;28;20119;-67
2022/06/09 04:45:38;;;;;;;16.10;6.35;;;13.50;99.90;;;;;;5026008;28;20044;-67
2022/06/09 04:48:05;;;;;;;9.68;6.63;;;13.50;99.90;;;;;;5044539;28;20044;-67
2022/06/09 04:50:31;;;;;;;16.50;6.50;;;13.60;99.90;;;;;;5026078;28;20152;-67
2022/06/09 04:52:57;;;;;;;11.60;6.15;;;13.70;99.90;;;;;;5026151;28;20048;-67
2022/06/09 04:55:23;;;;;;;15.23;7.55;;;;;;;;;;5025451;28;20056;-68
2022/06/09 04:57:49;;;;;;;14.43;8.35;;;13.80;99.90;;;;;;5026137;28;20074;-67
2022/06/09 05:00:16;;;;;;;13.48;8.30;;;13.80;99.90;;;;;;5044723;28;20144;-67
2022/06/09 05:02:42;;;;;;;21.65;11.35;;;;;;;;;;5035736;28;20045;-66
2022/06/09 05:05:16;;;;;;;17.33;10.43;;;14.10;99.90;;;;;;5044500;28;20040;-66
2022/06/09 05:07:42;;;;;;;17.70;9.85;;;;;;;;;;5045291;28;20032;-66
2022/06/09 05:10:09;;;;;;;16.23;9.13;;;13.90;99.90;;;;;;5023899;28;20044;-66
2022/06/09 05:12:35;;;;;;;19.75;10.45;;;;;;;;;;5035068;28;20042;-67
2022/06/09 05:15:01;;;;;;;20.83;11.68;;;;;;;;;;5043563;28;20040;-67
2022/06/09 05:17:27;;;;;;;25.67;13.18;;;;;;;;;;5010693;28;20076;-66
2022/06/09 05:19:52;;;;;;;23.15;12.25;;;14.00;99.90;;;;;;5049023;28;20105;-66
2022/06/09 05:22:18;;;;;;;21.73;10.75;;;;;;;;;;5044682;28;20124;-66
2022/06/09 05:24:44;;;;;;;14.30;8.70;;;13.90;99.90;;;;;;5016953;28;20099;-67
2022/06/09 05:27:11;;;;;;;17.80;8.23;;;;;;;;;;5015954;28;20103;-67
2022/06/09 05:29:37;;;;;;;13.75;7.95;;;13.90;99.90;;;;;;5028457;28;20404;-66
2022/06/09 05:32:03;;;;;;;25.92;9.93;;;14.10;99.90;;;;;;5035677;28;20044;-65
2022/06/09 05:34:30;;;;;;;23.27;10.45;;;14.10;99.90;;;;;;5039885;28;20033;-66
2022/06/09 05:36:57;;;;;;;26.30;12.20;;;14.20;99.90;;;;;;5043529;28;20037;-66
2022/06/09 05:45:13;;;;;;;25.17;13.25;;;14.30;99.90;;;;;;4931351;29;20051;-67
2022/06/09 05:47:38;;;;;;;26.13;15.20;;;14.20;99.90;;;;;;5027031;28;20057;-67
2022/06/09 05:50:05;;;;;;;25.90;14.13;;;14.40;99.90;;;;;;5048339;28;20575;-67
2022/06/09 05:52:31;;;;;;;19.60;13.00;;;;;;;;;;5053407;28;20033;-67
2022/06/09 05:54:57;;;;;;;24.25;13.95;;;14.40;99.90;;;;;;5057168;28;20556;-67
2022/06/09 05:57:24;;;;;;;25.00;14.90;;;14.30;99.90;;;;;;5049527;28;20510;-68
2022/06/09 05:59:51;;;;;;;22.55;14.60;;;14.50;99.90;;;;;;5024767;28;20128;-67
2022/06/09 06:02:18;;;;;;;24.13;14.98;;;14.30;99.90;;;;;;5024572;28;20041;-67
2022/06/09 06:04:44;;;;;;;31.15;16.55;;;14.50;99.90;;;;;;5033123;28;20049;-67
2022/06/09 06:07:10;;;;;;;24.55;15.23;;;;;;;;;;5040992;28;20469;-67
2022/06/09 06:09:36;;;;;;;26.75;15.25;;;14.70;99.90;;;;;;5018599;28;20044;-67
2022/06/09 06:12:03;;;;;;;23.80;15.63;;;14.80;99.90;;;;;;5035016;28;20072;-69
2022/06/09 06:14:30;;;;;;;19.58;13.88;;;14.90;99.90;;;;;;5035717;28;20152;-67
2022/06/09 06:16:56;;;;;;;20.65;14.80;;;14.90;99.90;;;;;;5019672;28;20080;-67
2022/06/09 06:19:23;;;;;;;20.23;13.60;;;15.00;99.90;;;;;;5038430;28;20074;-67
2022/06/09 06:21:51;;;;;;;26.20;14.52;;;14.90;99.90;;;;;;5021225;28;20049;-67
2022/06/09 06:24:18;;;;;;;25.45;14.80;;;15.10;99.90;;;;;;5017537;28;20500;-67
2022/06/09 06:26:44;;;;;;;23.08;13.77;;;15.40;99.90;;;;;;5037680;28;20053;-67
2022/06/09 06:29:22;;;;;;;20.65;14.60;;;15.40;99.90;;;;;;5038349;28;20041;-69
2022/06/09 06:31:48;;;;;;;18.63;13.82;;;15.50;99.90;;;;;;5039705;28;20087;-69
2022/06/09 06:34:16;;;;;;;16.77;12.23;;;15.60;99.90;;;;;;5020443;28;20971;-66
2022/06/09 06:36:41;;;;;;;18.67;12.25;;;15.60;99.90;;;;;;5020271;28;20045;-67
2022/06/09 06:39:07;;;;;;;19.33;12.40;;;15.70;99.90;;;;;;5040143;28;20049;-69
2022/06/09 06:41:33;;;;;;;17.90;12.70;;;15.70;99.90;;;;;;5020457;28;20056;-69
2022/06/09 06:43:59;;;;;;;17.55;12.90;;;15.70;99.90;;;;;;5017793;28;20048;-67
2022/06/09 06:46:24;;;;;;;16.50;12.25;;;15.80;99.90;;;;;;5013507;28;20048;-67
2022/06/09 06:48:50;;;;;;;18.00;11.82;;;16.00;99.90;;;;;;5013461;28;20410;-70
2022/06/09 06:51:16;;;;;;;14.98;11.07;;;16.30;99.90;;;;;;5030658;28;20075;-68
2022/06/09 06:53:42;;;;;;;13.77;10.80;;;16.00;99.90;;;;;;5031250;28;20044;-66
2022/06/09 06:56:09;;;;;;;20.50;12.15;;;16.10;99.90;;;;;;5034377;28;20053;-67
2022/06/09 06:58:35;;;;;;;16.35;11.15;;;16.20;99.90;;;;;;5018245;28;20049;-68
2022/06/09 07:01:03;;;;;;;19.77;10.10;;;16.40;99.90;;;;;;5035607;28;20037;-66
2022/06/09 07:03:32;;;;;;;15.63;9.65;;;;;;;;;;5035172;28;20123;-66
2022/06/09 07:05:58;;;;;;;13.45;9.38;;;16.20;99.90;;;;;;5016988;28;20036;-68
2022/06/09 07:08:24;;;;;;;15.88;9.02;;;16.40;99.90;;;;;;5016306;28;20407;-66
2022/06/09 07:10:51;;;;;;;13.02;8.63;;;16.50;99.90;;;;;;5033947;28;20149;-66
2022/06/09 07:13:16;;;;;;;13.50;8.43;;;16.60;99.90;;;;;;5033513;28;20151;-66
2022/06/09 07:15:42;;;;;;;9.90;7.63;;;16.50;99.90;;;;;;5036350;28;20095;-67
2022/06/09 07:18:09;;;;;;;13.23;7.13;;;16.80;99.90;;;;;;5033911;28;20045;-66
2022/06/09 07:20:35;;;;;;;9.55;5.75;;;17.00;99.90;;;;;;5035781;28;21144;-67
2022/06/09 07:23:00;;;;;;;7.50;4.03;;;16.90;99.90;;;;;;5034771;28;20053;-67
2022/06/09 07:25:27;;;;;;;9.18;4.53;;;17.00;99.90;;;;;;5036327;28;20045;-67
2022/06/09 07:27:54;;;;;;;9.60;4.97;;;17.20;99.90;;;;;;5017130;28;20459;-67
2022/06/09 07:30:22;;;;;;;11.68;5.50;;;17.10;99.90;;;;;;5035365;28;20078;-67
2022/06/09 07:32:48;;;;;;;7.00;3.65;;;16.90;99.90;;;;;;5008514;28;20550;-67
2022/06/09 07:35:18;;;;;;;4.47;3.30;;;17.10;99.90;;;;;;5016465;28;20086;-67
2022/06/09 07:37:44;;;;;;;9.98;3.40;;;17.30;99.90;;;;;;5016673;28;20056;-67
2022/06/09 07:40:11;;;;;;;5.90;3.65;;;17.10;99.90;;;;;;5036348;28;20067;-66
2022/06/09 07:42:37;;;;;;;5.05;3.15;;;17.20;99.90;;;;;;5017720;28;20048;-67
2022/06/09 07:45:05;;;;;;;8.05;3.85;;;17.20;99.90;;;;;;5019234;28;20507;-67
2022/06/09 07:47:30;;;;;;;8.57;4.00;;;17.40;99.90;;;;;;5018768;28;20052;-66
2022/06/09 07:49:57;;;;;;;4.40;3.30;;;17.50;99.90;;;;;;5017663;28;20052;-67
2022/06/09 07:52:23;;;;;;;4.57;2.58;;;17.80;99.90;;;;;;5016677;28;20045;-67
2022/06/09 07:54:48;;;;;;;5.78;2.35;;;17.50;99.90;;;;;;5036088;28;20057;-67
2022/06/09 07:57:14;;;;;;;9.00;2.78;;;17.50;99.90;;;;;;5035250;28;20049;-67
2022/06/09 07:59:40;;;;;;;5.50;1.98;;;17.70;99.90;;;;;;5036856;28;20443;-67
2022/06/09 08:02:05;;;;;;;5.93;1.70;;;17.80;99.90;;;;;;5017274;28;20106;-67
2022/06/09 08:04:31;;;;;;;8.52;1.92;;;17.60;99.90;;;;;;5017103;28;20068;-67
2022/06/09 08:06:57;;;;;;;6.25;2.25;;;17.70;99.90;;;;;;5035839;28;20045;-67
2022/06/09 08:09:22;;;;;;;4.63;1.92;;;17.90;99.90;;;;;;5015674;28;20040;-67
2022/06/09 08:11:49;;;;;;;4.80;2.42;;;17.90;99.90;;;;;;5035767;28;20037;-67
2022/06/09 08:14:15;;;;;;;3.53;1.63;;;17.90;99.90;;;;;;5035055;28;21011;-67
2022/06/09 08:16:41;;;;;;;6.72;1.70;;;17.90;99.90;;;;;;5016778;28;20041;-67
2022/06/09 08:19:07;;;;;;;7.07;1.70;;;18.30;99.90;;;;;;5017598;28;20716;-67
2022/06/09 08:21:33;;;;;;;7.65;1.52;;;17.80;99.90;;;;;;5017354;28;20045;-67
2022/06/09 08:24:00;;;;;;;7.07;1.83;;;18.00;99.90;;;;;;5035670;28;20481;-67
2022/06/09 08:26:25;;;;;;;5.22;1.50;;;18.10;99.90;;;;;;5016010;28;20138;-67
2022/06/09 08:28:52;;;;;;;5.70;1.58;;;18.00;99.90;;;;;;5014928;28;20135;-67
2022/06/09 08:31:18;;;;;;;6.15;2.13;;;18.00;99.90;;;;;;5015928;28;20167;-66
2022/06/09 08:33:44;;;;;;;3.35;1.20;;;18.40;99.90;;;;;;5034768;28;20049;-66
2022/06/09 08:36:10;;;;;;;4.07;1.40;;;18.10;99.90;;;;;;5034086;28;20154;-67
2022/06/09 08:38:36;;;;;;;4.95;1.83;;;18.30;99.90;;;;;;5034618;28;20180;-67
2022/06/09 08:41:27;;;;;;;3.28;1.10;;;18.20;99.90;;;;;;5016609;28;20057;-65
2022/06/09 08:44:23;;;;;;;4.72;1.25;;;18.30;99.90;;;;;;5033592;28;20036;-65
2022/06/09 08:47:19;;;;;;;5.85;1.33;;;18.10;99.90;;;;;;5032790;28;20059;-66
2022/06/09 08:50:05;;;;;;;4.85;1.33;;;18.30;99.90;;;;;;5013926;28;20210;-65
2022/06/09 08:52:30;;;;;;;4.43;1.10;;;18.10;99.90;;;;;;5034074;28;20068;-66
2022/06/09 08:54:57;;;;;;;6.32;1.83;;;18.60;99.90;;;;;;5017307;28;20479;-64
2022/06/09 08:57:30;;;;;;;5.75;1.13;;;18.40;99.90;;;;;;5012927;28;20049;-65
2022/06/09 08:59:58;;;;;;;7.57;2.70;;;18.50;99.90;;;;;;5012594;28;20104;-66
2022/06/09 09:02:40;;;;;;;4.90;1.50;;;18.60;99.90;;;;;;5015181;28;20051;-66
2022/06/09 09:05:06;;;;;;;5.18;1.13;;;18.50;99.90;;;;;;5014614;28;20045;-64
2022/06/09 09:07:35;;;;;;;5.15;1.38;;;18.50;99.90;;;;;;5012698;28;20056;-65
2022/06/09 09:10:15;;;;;;;5.07;1.27;;;18.70;99.90;;;;;;4996322;28;20069;-64
2022/06/09 09:12:59;;;;;;;5.82;1.50;;;18.90;99.90;;;;;;5013188;28;20099;-66
2022/06/09 09:15:35;;;;;;;5.13;0.90;;;18.70;99.90;;;;;;5012282;28;20056;-65
2022/06/09 09:18:10;;;;;;;7.95;1.73;;;20.40;99.90;;;;;;5012101;28;20268;-67
2022/06/09 09:20:43;;;;;;;7.68;2.03;;;19.00;99.90;;;;;;5012833;28;20042;-67
2022/06/09 09:23:16;;;;;;;8.05;2.28;;;19.10;99.90;;;;;;5014139;28;20041;-67
2022/06/09 09:26:27;;;;;;;8.73;1.67;;;18.90;99.90;;;;;;5013115;28;20050;-66
2022/06/09 09:29:11;;;;;;;9.48;1.88;;;19.20;99.90;;;;;;5011335;28;20049;-65
2022/06/09 09:31:57;;;;;;;5.65;1.50;;;19.10;99.90;;;;;;5011535;28;20053;-66
2022/06/09 09:34:29;;;;;;;5.30;1.38;;;19.00;99.90;;;;;;5012675;28;20049;-66
2022/06/09 09:37:32;;;;;;;8.48;2.30;;;19.80;99.90;;;;;;5011844;28;20658;-67
2022/06/09 09:40:00;;;;;;;5.53;1.92;;;19.10;99.90;;;;;;5003791;28;20515;-67
2022/06/09 09:42:33;;;;;;;10.80;1.50;;;19.00;99.90;;;;;;5014575;28;20037;-65
2022/06/09 09:45:04;;;;;;;8.13;1.98;;;18.90;99.90;;;;;;5030179;28;20549;-66
2022/06/09 09:47:40;;;;;;;8.10;2.08;;;19.00;99.90;;;;;;5015196;28;20052;-66
2022/06/09 09:50:18;;;;;;;6.32;1.55;;;19.40;99.90;;;;;;5016227;28;20415;-66
2022/06/09 09:52:46;;;;;;;5.47;1.40;;;19.30;99.90;;;;;;5017089;28;20052;-67
2022/06/09 09:55:29;;;;;;;9.35;1.65;;;19.30;99.90;;;;;;5014313;28;20399;-66
2022/06/09 09:58:19;;;;;;;5.35;1.75;;;19.30;99.90;;;;;;5014463;28;20152;-66
2022/06/09 10:00:49;;;;;;;10.65;1.77;;;19.50;99.90;;;;;;5011449;28;20056;-65
2022/06/09 10:09:09;;;;;;;;;;;19.60;99.90;;;;;;5015412;28;20054;-66
2022/06/09 10:11:54;;;;;;;5.93;1.10;;;19.70;99.90;;;;;;5012862;28;19924;-67
2022/06/09 10:14:38;;;;;;;8.43;1.55;;;19.80;99.90;;;;;;5015202;28;20044;-66
2022/06/09 10:17:09;;;;;;;8.15;1.13;;;21.10;99.90;;;;;;5012180;28;20386;-65
2022/06/09 10:19:35;;;;;;;4.35;1.45;;;19.90;99.90;;;;;;5010854;28;20524;-66
2022/06/09 10:22:15;;;;;;;7.13;1.67;;;20.00;99.90;;;;;;5012142;28;20103;-66
2022/06/09 10:24:53;;;;;;;4.85;1.13;;;20.20;99.90;;;;;;5014251;28;20046;-66
2022/06/09 10:27:21;;;;;;;6.50;1.20;;;20.10;99.90;;;;;;5014936;28;20060;-67
2022/06/09 10:29:59;;;;;;;4.22;1.00;;;20.10;99.90;;;;;;5017147;28;20045;-67
2022/06/09 10:32:41;;;;;;;6.05;1.00;;;21.20;99.90;;;;;;5016173;28;20121;-67
2022/06/09 10:35:33;;;;;;;9.05;1.20;;;21.00;99.90;;;;;;4996573;28;20045;-67
2022/06/09 10:38:09;;;;;;;5.95;1.00;;;20.00;99.90;;;;;;5016134;28;20577;-67
2022/06/09 10:40:54;;;;;;;9.18;0.93;;;20.00;99.90;;;;;;5016683;28;20500;-67
2022/06/09 10:43:25;;;;;;;7.05;1.23;;;19.90;99.90;;;;;;5016799;28;20176;-65
2022/06/09 10:46:04;;;;;;;6.70;0.85;;;19.70;99.90;;;;;;5009661;28;20066;-65
2022/06/09 10:57:30;;;;;;;4.25;1.33;;;19.90;99.90;;;;;;5014017;28;20054;-67
2022/06/09 11:00:13;;;;;;;8.00;1.35;;;21.00;99.90;;;;;;5014759;28;20510;-67
2022/06/09 11:02:58;;;;;;;5.32;0.50;;;20.00;99.90;;;;;;5014082;28;20572;-67
2022/06/09 11:05:54;;;;;;;8.30;1.33;;;20.00;99.90;;;;;;5013566;28;20045;-67
2022/06/09 11:08:31;;;;;;;5.65;1.10;;;19.90;99.90;;;;;;5014193;28;20700;-67
2022/06/09 11:11:09;;;;;;;4.30;1.02;;;20.20;99.90;;;;;;5011822;28;20107;-67
2022/06/09 11:14:17;;;;;;;3.13;0.80;;;20.20;99.90;;;;;;5012414;28;20049;-66
2022/06/09 11:17:17;;;;;;;5.57;1.10;;;19.90;99.90;;;;;;5013804;28;20503;-66
2022/06/09 11:20:04;;;;;;;6.03;1.00;;;20.10;99.90;;;;;;4996042;28;20128;-67
2022/06/09 11:22:45;;;;;;;6.18;0.75;;;20.50;99.90;;;;;;5015054;28;20049;-67
2022/06/09 11:25:37;;;;;;;6.18;0.80;;;20.00;99.90;;;;;;5013286;28;20052;-66
2022/06/09 11:28:12;;;;;;;3.22;0.80;;;19.80;99.90;;;;;;5014737;28;20037;-66
2022/06/09 11:30:54;;;;;;;4.43;0.73;;;19.90;99.90;;;;;;5012425;28;20045;-65
2022/06/09 11:33:48;;;;;;;5.93;0.80;;;19.90;99.90;;;;;;5013264;28;20052;-68
2022/06/09 11:36:34;;;;;;;4.75;1.45;;;19.70;99.90;;;;;;5013266;28;20072;-66
2022/06/09 11:39:23;;;;;;;4.43;0.80;;;19.80;99.90;;;;;;5014506;28;20112;-66
2022/06/09 11:42:22;;;;;;;9.68;1.55;;;19.90;99.90;;;;;;5013869;28;20060;-67
2022/06/09 11:44:51;;;;;;;6.80;1.77;;;19.90;99.90;;;;;;5014820;28;20140;-67
2022/06/09 11:47:19;;;;;;;7.40;1.48;;;19.90;99.90;;;;;;5012721;28;20088;-67
2022/06/09 11:49:48;;;;;;;4.90;1.23;;;20.00;99.90;;;;;;5014415;28;20046;-67
2022/06/09 11:52:35;;;;;;;6.30;1.05;;;19.80;99.90;;;;;;5013062;28;20053;-68
2022/06/09 11:55:24;;;;;;;4.43;1.17;;;19.80;99.90;;;;;;5013592;28;20057;-68
2022/06/09 11:57:51;;;;;;;5.50;1.08;;;19.90;99.90;;;;;;5032334;28;20060;-65
2022/06/09 12:00:19;;;;;;;6.95;1.10;;;19.80;99.90;;;;;;5033594;28;20071;-66
2022/06/09 12:02:56;;;;;;;3.63;1.00;;;19.90;99.90;;;;;;5033685;28;20045;-68
2022/06/09 12:05:52;;;;;;;3.85;0.93;;;19.70;99.90;;;;;;5015043;28;20140;-66
2022/06/09 12:08:24;;;;;;;;;;;20.00;99.90;;;;;;5032571;28;20093;-67
2022/06/09 12:11:25;;;;;;;13.65;1.85;;;20.00;99.90;;;;;;5013357;28;20339;-66
2022/06/09 12:13:53;;;;;;;7.60;0.95;;;19.90;99.90;;;;;;4992084;28;20056;-66
2022/06/09 12:16:25;;;;;;;9.40;1.08;;;19.80;99.90;;;;;;5031966;28;20078;-66
2022/06/09 12:19:13;;;;;;;8.10;1.25;;;19.90;99.90;;;;;;5033110;28;20045;-67
2022/06/09 12:21:44;;;;;;;4.03;0.70;;;20.80;99.90;;;;;;5014650;28;20044;-66
2022/06/09 12:24:30;;;;;;;5.35;1.10;;;19.90;99.90;;;;;;5013271;28;20044;-65
2022/06/09 12:27:27;;;;;;;5.07;1.13;;;19.90;99.90;;;;;;5014822;28;20056;-65
2022/06/09 12:29:57;;;;;;;3.38;0.82;;;19.80;99.90;;;;;;5023875;28;20065;-66
2022/06/09 12:32:28;;;;;;;5.10;0.93;;;19.90;99.90;;;;;;5013248;28;20414;-64
2022/06/09 12:34:55;;;;;;;4.88;0.88;;;20.00;99.90;;;;;;5032384;28;20123;-65
2022/06/09 12:37:30;;;;;;;5.63;1.20;;;20.10;99.90;;;;;;5014875;28;20044;-65
2022/06/09 12:40:06;;;;;;;4.93;1.15;;;20.10;99.90;;;;;;5033318;28;20115;-65
2022/06/09 12:42:51;;;;;;;7.05;1.08;;;19.90;99.90;;;;;;5015830;28;20076;-65
2022/06/09 12:45:34;;;;;;;5.57;1.48;;;20.10;99.90;;;;;;5033006;28;20160;-64
2022/06/09 12:48:03;;;;;;;5.10;0.82;;;20.10;99.90;;;;;;5014023;28;20049;-65
2022/06/09 12:50:52;;;;;;;5.97;0.93;;;20.00;99.90;;;;;;5012766;28;20094;-64
2022/06/09 12:53:26;;;;;;;7.22;1.15;;;20.20;99.90;;;;;;5011679;28;20115;-68
2022/06/09 12:55:56;;;;;;;4.97;1.00;;;20.30;99.90;;;;;;5023549;28;20057;-66
2022/06/09 12:58:26;;;;;;;6.57;1.10;;;20.00;99.90;;;;;;5006337;28;20139;-66
2022/06/09 13:00:58;;;;;;;7.32;0.70;;;19.90;99.90;;;;;;5008199;28;20485;-67
2022/06/09 13:03:31;;;;;;;5.88;1.20;;;20.00;99.90;;;;;;5009340;28;20548;-67
2022/06/09 13:06:09;;;;;;;7.00;0.93;;;21.70;99.90;;;;;;5004439;28;20044;-67
2022/06/09 13:08:46;;;;;;;5.93;1.30;;;19.80;99.90;;;;;;5023990;28;20047;-66
2022/06/09 13:12:50;;;;;;;10.20;1.60;;;20.30;99.90;;;;;;5025447;28;20410;-65
2022/06/09 13:14:07;;;;;;;7.80;1.25;;;20.20;99.90;;;;;;5005483;28;20084;-65
2022/06/09 13:16:34;;;;;;;8.30;1.67;;;19.90;99.90;;;;;;5023397;28;20040;-62
2022/06/09 13:19:04;;;;;;;6.75;1.33;;;19.80;99.90;;;;;;5006167;28;20451;-64
2022/06/09 13:21:39;;;;;;;7.75;1.10;;;20.00;99.90;;;;;;5005202;28;20213;-65
2022/06/09 13:24:22;;;;;;;6.40;0.98;;;19.80;99.90;;;;;;5025652;28;20047;-65
2022/06/09 13:26:48;;;;;;;5.15;0.93;;;19.90;99.90;;;;;;5024381;28;20554;-65
2022/06/09 13:29:28;;;;;;;7.38;1.00;;;19.70;99.90;;;;;;5019737;28;20134;-64
2022/06/09 13:32:16;;;;;;;7.30;1.20;;;19.60;99.90;;;;;;5005615;28;20041;-66